KDLN/DLN METAR and TAF weather

Enter ICAO airport designator
Station Type Date Time Source
KDLN METAR 2018/04/23 10:53 UTC NOAA

KDLN 231053Z AUTO 04017KT 7SM -SN SCT015 BKN022 OVC029 01/01 A3013 RMK AO2 UPB0955E05B38E43SNB43 SLP186 P0001 T00110006


Station Type Date Time Source
KDLN Decoded METAR 2018/04/23 10:53 UTC NOAA

DILLON AIRPORT, MT, United States (KDLN) 45-15N 112-33W 1591M
Apr 23, 2018 - 06:53 AM EDT / 2018.04.23 1053 UTC
Wind: from the NE (040 degrees) at 20 MPH (17 KT):0
Visibility: 7 mile(s):0
Sky conditions: overcast
Weather: light snow
Precipitation last hour: 0.01 inches
Temperature: 34.0 F (1.1 C)
Windchill: 23 F (-5 C):1
Dew Point: 33.1 F (0.6 C)
Relative Humidity: 96%
Pressure (altimeter): 30.13 in. Hg (1020 hPa)
ob: KDLN 231053Z AUTO 04017KT 7SM -SN SCT015 BKN022 OVC029 01/01 A3013 RMK AO2 UPB0955E05B38E43SNB43 SLP186 P0001 T00110006
cycle: 11

Station Type Date Time Source
KDLN TAF UTC NOAA

Error!


Example: see airport list